Terminal Aerodrome Forecast
Issued by NWS

Home | Current Version | Previous Version | Text Only | Print | Product List | Glossary On
Versions: 1 2 3 4 5 6 7 8 9 10 11 12 13 14 15 16 17 18 19 20 21 22 23 24 25 26 27
924
FTUS43 KGRR 261740
TAFBTL
TAF
KBTL 261740Z 2618/2718 21005KT P6SM SCT025
     FM262300 05004KT P6SM -SHRA VCTS OVC040CB
     FM270200 10004KT 4SM -SHRA BR OVC015
     FM270400 VRB06KT 5SM BR OVC010
     FM271400 35004KT P6SM SCT050=

USA.gov is the U.S. government's official web portal to all federal, state and local government web resources and services.